createdAt,value
2017-11-08T00:01:19.527Z,9.90
2017-11-08T00:03:47.056Z,9.90
2017-11-08T00:06:14.574Z,9.90
2017-11-08T00:08:42.044Z,9.90
2017-11-08T00:11:10.274Z,9.80
2017-11-08T00:13:37.737Z,9.80
2017-11-08T00:16:08.188Z,9.80
2017-11-08T00:18:36.454Z,9.80
2017-11-08T00:21:03.929Z,9.80
2017-11-08T00:23:36.153Z,9.80
2017-11-08T00:26:03.643Z,9.70
2017-11-08T00:28:31.111Z,9.70
2017-11-08T00:30:59.346Z,9.70
2017-11-08T00:33:26.825Z,9.70
2017-11-08T00:35:54.285Z,9.60
2017-11-08T00:38:21.744Z,9.60
2017-11-08T00:40:49.209Z,9.70
2017-11-08T00:43:17.430Z,9.60
2017-11-08T00:45:44.904Z,9.60
2017-11-08T00:48:12.361Z,9.70
2017-11-08T00:50:39.937Z,9.70
2017-11-08T00:53:09.316Z,9.70
2017-11-08T00:55:37.593Z,9.70
2017-11-08T00:58:05.069Z,9.70
2017-11-08T01:00:34.457Z,9.60
2017-11-08T01:03:02.029Z,9.50
2017-11-08T01:05:31.021Z,9.40
2017-11-08T01:07:58.644Z,9.30
2017-11-08T01:10:26.105Z,9.40
2017-11-08T01:12:53.587Z,9.40
2017-11-08T01:15:21.208Z,9.40
2017-11-08T01:17:49.408Z,9.30
2017-11-08T01:20:16.873Z,9.30
2017-11-08T01:22:44.341Z,9.30
2017-11-08T01:25:11.904Z,9.30
2017-11-08T01:27:40.143Z,9.40
2017-11-08T01:30:07.601Z,9.30
2017-11-08T01:32:35.104Z,9.40
2017-11-08T01:35:02.655Z,9.40
2017-11-08T01:37:35.780Z,9.40
2017-11-08T01:40:03.255Z,9.20
2017-11-08T01:42:32.705Z,9.20
2017-11-08T01:45:08.261Z,9.20
2017-11-08T01:47:36.500Z,9.00
2017-11-08T01:50:03.988Z,9.00
2017-11-08T01:52:32.234Z,9.00
2017-11-08T01:54:59.768Z,8.90
2017-11-08T01:57:27.234Z,9.00
2017-11-08T01:59:54.699Z,9.00
2017-11-08T02:02:22.174Z,9.00
2017-11-08T02:04:49.646Z,8.90
2017-11-08T02:07:18.620Z,8.80
2017-11-08T02:09:46.085Z,8.80
2017-11-08T02:12:13.595Z,8.80
2017-11-08T02:14:41.111Z,8.70
2017-11-08T02:17:09.576Z,8.70
2017-11-08T02:19:37.186Z,8.70
2017-11-08T02:22:04.760Z,8.70
2017-11-08T02:24:32.392Z,8.80
2017-11-08T02:27:05.614Z,8.70
2017-11-08T02:29:33.086Z,8.70
2017-11-08T02:32:00.559Z,8.70
2017-11-08T02:34:28.032Z,8.60
2017-11-08T02:36:55.513Z,8.60
2017-11-08T02:39:22.979Z,8.50
2017-11-08T02:41:50.443Z,8.50
2017-11-08T02:44:17.953Z,8.50
2017-11-08T02:46:45.421Z,8.50
2017-11-08T02:49:12.978Z,8.50
2017-11-08T02:51:40.443Z,8.50
2017-11-08T02:54:08.688Z,8.40
2017-11-08T02:56:36.159Z,8.40
2017-11-08T02:59:04.419Z,8.50
2017-11-08T03:01:31.882Z,8.50
2017-11-08T03:04:01.962Z,8.50
2017-11-08T03:06:29.477Z,8.50
2017-11-08T03:08:57.706Z,8.50
2017-11-08T03:11:25.199Z,8.50
2017-11-08T03:13:52.667Z,8.50
2017-11-08T03:16:20.146Z,8.50
2017-11-08T03:18:47.628Z,8.50
2017-11-08T03:21:15.101Z,8.50
2017-11-08T03:23:42.581Z,8.40
2017-11-08T03:26:10.047Z,8.40
2017-11-08T03:28:37.506Z,8.30
2017-11-08T03:31:05.130Z,8.30
2017-11-08T03:33:32.685Z,8.30
2017-11-08T03:36:00.153Z,8.40
2017-11-08T03:38:27.613Z,8.40
2017-11-08T03:40:55.240Z,8.40
2017-11-08T03:43:23.108Z,8.40
2017-11-08T03:45:50.574Z,8.30
2017-11-08T03:48:18.070Z,8.30
2017-11-08T03:50:45.641Z,8.40
2017-11-08T03:53:13.914Z,8.30
2017-11-08T03:55:41.387Z,8.30
2017-11-08T03:58:09.626Z,8.30
2017-11-08T04:00:37.090Z,8.30
2017-11-08T04:03:04.564Z,8.30
2017-11-08T04:05:32.838Z,8.40
2017-11-08T04:08:01.106Z,8.30
2017-11-08T04:10:28.570Z,8.30
2017-11-08T04:12:56.814Z,8.40
2017-11-08T04:15:24.288Z,8.30
2017-11-08T04:17:51.761Z,8.50
2017-11-08T04:20:20.038Z,8.50
2017-11-08T04:22:48.269Z,8.50
2017-11-08T04:25:15.750Z,8.50
2017-11-08T04:27:43.311Z,8.50
2017-11-08T04:30:10.773Z,8.60
2017-11-08T04:32:38.326Z,8.60
2017-11-08T04:35:05.800Z,8.60
2017-11-08T04:37:34.042Z,8.70
2017-11-08T04:40:01.622Z,8.60
2017-11-08T04:42:29.184Z,8.70
2017-11-08T04:44:56.656Z,8.70
2017-11-08T04:47:24.896Z,8.80
2017-11-08T04:49:52.378Z,8.70
2017-11-08T04:52:19.834Z,8.80
2017-11-08T04:54:48.082Z,8.90
2017-11-08T04:57:15.557Z,8.80
2017-11-08T04:59:43.026Z,8.90
2017-11-08T05:02:11.286Z,9.00
2017-11-08T05:04:38.758Z,8.90
2017-11-08T05:07:06.218Z,8.90
2017-11-08T05:09:34.578Z,8.80
2017-11-08T05:12:02.046Z,8.80
2017-11-08T05:14:30.363Z,8.90
2017-11-08T05:16:57.862Z,8.90
2017-11-08T05:19:25.423Z,8.90
2017-11-08T05:21:52.986Z,8.80
2017-11-08T05:24:20.448Z,8.90
2017-11-08T05:26:48.009Z,8.90
2017-11-08T05:29:15.561Z,8.90
2017-11-08T05:31:43.120Z,8.90
2017-11-08T05:34:10.581Z,8.90
2017-11-08T05:36:38.133Z,9.00
2017-11-08T05:39:05.602Z,9.00
2017-11-08T05:41:33.146Z,9.00
2017-11-08T05:44:00.606Z,9.00
2017-11-08T05:46:29.599Z,9.00
2017-11-08T05:48:57.071Z,9.00
2017-11-08T05:51:25.328Z,9.20
2017-11-08T05:53:52.859Z,9.10
2017-11-08T05:56:20.326Z,9.20
2017-11-08T05:58:47.910Z,9.20
2017-11-08T06:01:15.386Z,9.20
2017-11-08T06:03:42.857Z,9.30
2017-11-08T06:06:10.328Z,9.30
2017-11-08T06:08:37.843Z,9.20
2017-11-08T06:11:05.402Z,9.20
2017-11-08T06:13:32.882Z,9.10
2017-11-08T06:16:00.342Z,9.10
2017-11-08T06:18:27.825Z,9.20
2017-11-08T06:20:55.286Z,9.30
2017-11-08T06:23:23.382Z,9.30
2017-11-08T06:25:50.851Z,9.20
2017-11-08T06:28:18.321Z,9.10
2017-11-08T06:30:46.582Z,9.00
2017-11-08T06:33:14.143Z,8.90
2017-11-08T06:35:43.113Z,8.90
2017-11-08T06:38:10.591Z,8.90
2017-11-08T06:40:38.146Z,9.00
2017-11-08T06:43:05.756Z,9.00
2017-11-08T06:45:33.242Z,9.00
2017-11-08T06:48:00.710Z,9.00
2017-11-08T06:50:28.182Z,9.00
2017-11-08T06:53:01.519Z,9.00
2017-11-08T06:55:29.802Z,9.00
2017-11-08T06:57:57.261Z,9.00
2017-11-08T07:00:24.732Z,9.00
2017-11-08T07:02:52.193Z,9.00
2017-11-08T07:05:19.661Z,9.00
2017-11-08T07:07:47.122Z,9.00
2017-11-08T07:10:14.589Z,9.00
2017-11-08T07:12:42.164Z,8.90
2017-11-08T07:15:10.399Z,8.90
2017-11-08T07:17:37.883Z,8.80
2017-11-08T07:20:05.430Z,8.80
2017-11-08T07:22:32.899Z,8.90
2017-11-08T07:25:00.384Z,8.90
2017-11-08T07:27:27.902Z,8.80
2017-11-08T07:29:55.419Z,8.80
2017-11-08T07:32:22.897Z,8.80
2017-11-08T07:34:50.358Z,9.00
2017-11-08T07:37:17.830Z,9.10
2017-11-08T07:39:45.304Z,9.10
2017-11-08T07:42:13.621Z,9.20
2017-11-08T07:44:41.086Z,9.10
2017-11-08T07:47:08.686Z,9.20
2017-11-08T07:49:36.157Z,9.20
2017-11-08T07:52:06.333Z,9.00
2017-11-08T07:54:33.816Z,9.00
2017-11-08T07:57:02.050Z,9.10
2017-11-08T07:59:35.250Z,9.00
2017-11-08T08:02:02.715Z,9.10
2017-11-08T08:04:30.182Z,9.10
2017-11-08T08:06:58.694Z,9.20
2017-11-08T08:12:26.374Z,9.10
2017-11-08T08:14:54.613Z,9.30
2017-11-08T08:17:22.078Z,9.20
2017-11-08T08:19:49.664Z,9.30
2017-11-08T08:22:17.890Z,9.40
2017-11-08T08:24:45.391Z,9.30
2017-11-08T08:27:15.833Z,9.50
2017-11-08T08:29:44.082Z,9.50
2017-11-08T08:32:11.555Z,9.50
2017-11-08T08:34:39.020Z,9.60
2017-11-08T08:37:07.262Z,9.70
2017-11-08T08:39:34.727Z,9.70
2017-11-08T08:42:02.292Z,9.80
2017-11-08T08:44:29.845Z,10.00
2017-11-08T08:46:57.321Z,10.20
2017-11-08T08:49:25.598Z,9.90
2017-11-08T08:51:53.858Z,9.90
2017-11-08T08:54:21.467Z,9.80
2017-11-08T08:56:48.929Z,9.80
2017-11-08T08:59:16.435Z,9.80
2017-11-08T09:01:43.910Z,9.80
2017-11-08T09:04:34.129Z,9.70
2017-11-08T09:07:01.686Z,9.70
2017-11-08T09:09:29.150Z,9.70
2017-11-08T09:11:56.656Z,9.80
2017-11-08T09:14:24.205Z,9.80
2017-11-08T09:19:25.050Z,9.90
2017-11-08T09:21:53.083Z,10.00
2017-11-08T09:24:20.557Z,10.20
2017-11-08T09:26:48.030Z,10.70
2017-11-08T09:29:17.313Z,11.30
2017-11-08T09:31:45.497Z,11.50
2017-11-08T09:34:13.129Z,11.40
2017-11-08T09:36:40.606Z,11.20
2017-11-08T09:39:08.247Z,11.10
2017-11-08T09:41:35.716Z,11.00
2017-11-08T09:44:03.220Z,11.00
2017-11-08T09:46:31.538Z,12.10
2017-11-08T09:48:59.019Z,12.10
2017-11-08T09:51:26.502Z,13.10
2017-11-08T09:53:54.068Z,14.30
2017-11-08T09:56:22.314Z,15.00
2017-11-08T09:58:49.912Z,14.90
2017-11-08T10:01:24.356Z,14.90
2017-11-08T10:03:51.884Z,14.80
2017-11-08T10:06:20.254Z,13.60
2017-11-08T10:08:48.480Z,12.90
2017-11-08T10:11:17.824Z,12.80
2017-11-08T10:13:45.320Z,12.40
2017-11-08T10:16:12.810Z,12.30
2017-11-08T10:18:40.353Z,12.50
2017-11-08T10:21:07.926Z,12.70
2017-11-08T10:23:38.543Z,13.40
2017-11-08T10:26:06.511Z,13.60
2017-11-08T10:28:34.481Z,14.00
2017-11-08T10:31:02.174Z,14.10
2017-11-08T10:33:29.644Z,13.90
2017-11-08T10:35:57.129Z,13.90
2017-11-08T10:38:24.650Z,13.70
2017-11-08T10:40:52.222Z,13.70
2017-11-08T10:43:19.791Z,13.70
2017-11-08T10:45:47.294Z,14.30
2017-11-08T10:48:14.870Z,14.90
2017-11-08T10:50:43.599Z,15.00
2017-11-08T10:53:11.890Z,15.00
2017-11-08T10:55:39.533Z,15.50
2017-11-08T10:58:07.023Z,15.80
2017-11-08T11:00:37.471Z,15.80
2017-11-08T11:03:06.538Z,16.20
2017-11-08T11:05:35.738Z,16.10
2017-11-08T11:08:04.063Z,15.40
2017-11-08T11:10:31.575Z,15.30
2017-11-08T11:13:03.998Z,15.20
2017-11-08T11:15:31.539Z,15.40
2017-11-08T11:17:59.787Z,16.40
2017-11-08T11:20:28.212Z,16.30
2017-11-08T11:22:55.896Z,16.80
2017-11-08T11:25:23.508Z,16.70
2017-11-08T11:27:50.979Z,16.10
2017-11-08T11:30:25.044Z,15.70
2017-11-08T11:32:52.534Z,15.60
2017-11-08T11:35:20.095Z,15.90
2017-11-08T11:37:47.576Z,16.40
2017-11-08T11:40:15.811Z,16.90
2017-11-08T11:42:43.292Z,16.90
2017-11-08T11:45:11.534Z,15.60
2017-11-08T11:47:39.232Z,15.60
2017-11-08T11:50:07.477Z,14.90
2017-11-08T11:52:34.967Z,14.80
2017-11-08T11:55:03.236Z,14.30
2017-11-08T11:57:30.720Z,14.30
2017-11-08T11:59:58.190Z,14.20
2017-11-08T12:02:25.672Z,14.20
2017-11-08T12:04:53.144Z,14.20
2017-11-08T12:07:20.618Z,14.30
2017-11-08T12:09:48.183Z,14.10
2017-11-08T12:12:15.660Z,14.10
2017-11-08T12:14:43.967Z,14.20
2017-11-08T12:17:11.475Z,14.20
2017-11-08T12:19:38.959Z,14.20
2017-11-08T12:22:06.435Z,14.00
2017-11-08T12:24:34.117Z,14.00
2017-11-08T12:27:05.472Z,13.90
2017-11-08T12:29:33.053Z,13.80
2017-11-08T12:32:00.610Z,13.50
2017-11-08T12:34:28.122Z,13.20
2017-11-08T12:36:55.623Z,12.90
2017-11-08T12:39:23.103Z,12.70
2017-11-08T12:41:51.343Z,12.30
2017-11-08T12:44:24.579Z,12.30
2017-11-08T12:46:52.058Z,12.20
2017-11-08T12:49:19.535Z,12.20
2017-11-08T12:51:47.028Z,12.30
2017-11-08T12:54:14.502Z,12.30
2017-11-08T12:56:42.744Z,12.40
2017-11-08T12:59:10.319Z,12.40
2017-11-08T13:01:37.825Z,12.40
2017-11-08T13:04:07.115Z,12.40
2017-11-08T13:06:36.529Z,12.40
2017-11-08T13:09:04.057Z,12.40
2017-11-08T13:11:36.071Z,12.50
2017-11-08T13:14:03.559Z,12.50
2017-11-08T13:16:31.118Z,12.60
2017-11-08T13:18:58.605Z,12.60
2017-11-08T13:21:26.130Z,12.60
2017-11-08T13:23:53.599Z,12.40
2017-11-08T13:26:21.891Z,12.10
2017-11-08T13:28:49.406Z,12.00
2017-11-08T13:31:16.879Z,11.90
2017-11-08T13:33:44.364Z,11.80
2017-11-08T13:36:11.899Z,11.70
2017-11-08T13:38:39.377Z,11.70
2017-11-08T13:41:06.915Z,11.90
2017-11-08T13:43:34.394Z,12.00
2017-11-08T13:46:01.878Z,11.80
2017-11-08T13:48:29.375Z,11.60
2017-11-08T13:50:56.864Z,11.60
2017-11-08T13:53:25.169Z,11.70
2017-11-08T13:55:52.651Z,11.60
2017-11-08T13:58:20.138Z,11.60
2017-11-08T14:00:48.399Z,11.50
2017-11-08T14:03:15.973Z,11.40
2017-11-08T14:05:43.446Z,11.40
2017-11-08T14:08:10.991Z,11.30
2017-11-08T14:10:38.543Z,11.20
2017-11-08T14:13:06.023Z,11.10
2017-11-08T14:15:34.301Z,10.90
2017-11-08T14:18:02.539Z,10.90
2017-11-08T14:20:30.013Z,10.80
2017-11-08T14:22:58.252Z,10.70
2017-11-08T14:25:25.745Z,10.60
2017-11-08T14:27:53.227Z,10.60
2017-11-08T14:30:21.463Z,10.50
2017-11-08T14:32:49.039Z,10.50
2017-11-08T14:35:17.336Z,10.50
2017-11-08T14:37:45.583Z,10.40
2017-11-08T14:40:13.058Z,10.40
2017-11-08T14:42:41.295Z,10.60
2017-11-08T14:45:08.825Z,10.50
2017-11-08T14:47:36.293Z,10.60
2017-11-08T14:50:03.769Z,10.60
2017-11-08T14:52:31.231Z,10.70
2017-11-08T14:55:01.474Z,10.70
2017-11-08T14:57:28.949Z,10.50
2017-11-08T14:59:57.187Z,10.50
2017-11-08T15:02:25.432Z,10.50
2017-11-08T15:04:52.989Z,10.40
2017-11-08T15:07:20.466Z,10.50
2017-11-08T15:09:48.050Z,10.60
2017-11-08T15:12:15.531Z,10.60
2017-11-08T15:14:43.771Z,10.20
2017-11-08T15:17:18.761Z,10.20
2017-11-08T15:19:47.399Z,10.20
2017-11-08T15:22:14.964Z,10.20
2017-11-08T15:24:42.523Z,10.20
2017-11-08T15:27:10.000Z,10.30
2017-11-08T15:29:37.536Z,10.50
2017-11-08T15:32:05.095Z,10.50
2017-11-08T15:34:34.106Z,10.40
2017-11-08T15:37:02.516Z,10.20
2017-11-08T15:39:30.025Z,10.20
2017-11-08T15:41:57.584Z,10.10
2017-11-08T15:44:25.058Z,10.10
2017-11-08T15:46:55.155Z,9.90
2017-11-08T15:49:24.147Z,9.80
2017-11-08T15:51:51.718Z,9.80
2017-11-08T15:54:20.036Z,9.80
2017-11-08T15:56:47.520Z,9.70
2017-11-08T15:59:14.993Z,9.80
2017-11-08T16:01:45.088Z,9.70
2017-11-08T16:04:12.579Z,9.80
2017-11-08T16:06:40.852Z,9.70
2017-11-08T16:09:10.260Z,9.70
2017-11-08T16:11:38.527Z,9.70
2017-11-08T16:14:06.089Z,9.60
2017-11-08T16:16:33.563Z,9.70
2017-11-08T16:19:02.573Z,9.80
2017-11-08T16:21:30.822Z,9.70
2017-11-08T16:23:59.064Z,9.90
2017-11-08T16:26:26.551Z,9.80
2017-11-08T16:28:54.807Z,10.00
2017-11-08T16:31:22.287Z,10.00
2017-11-08T16:33:50.557Z,10.00
2017-11-08T16:36:18.034Z,10.00
2017-11-08T16:38:45.506Z,10.00
2017-11-08T16:41:12.972Z,10.00
2017-11-08T16:43:40.459Z,10.00
2017-11-08T16:46:08.035Z,10.00
2017-11-08T16:48:35.510Z,9.90
2017-11-08T16:51:03.751Z,9.90
2017-11-08T16:53:31.222Z,9.80
2017-11-08T16:55:58.696Z,9.80
2017-11-08T16:58:26.931Z,9.90
2017-11-08T17:00:54.399Z,9.90
2017-11-08T17:03:21.860Z,9.90
2017-11-08T17:05:50.868Z,9.60
2017-11-08T17:08:19.122Z,9.70
2017-11-08T17:10:46.615Z,9.70
2017-11-08T17:13:14.870Z,9.70
2017-11-08T17:15:42.359Z,9.70
2017-11-08T17:18:09.827Z,9.60
2017-11-08T17:20:37.395Z,9.70
2017-11-08T17:23:04.924Z,9.60
2017-11-08T17:25:33.155Z,9.60
2017-11-08T17:28:00.632Z,9.60
2017-11-08T17:30:28.196Z,9.60
2017-11-08T17:32:56.442Z,9.50
2017-11-08T17:35:23.957Z,9.50
2017-11-08T17:37:51.423Z,9.60
2017-11-08T17:40:18.887Z,9.70
2017-11-08T17:42:46.364Z,9.80
2017-11-08T17:45:13.831Z,9.90
2017-11-08T17:47:41.411Z,9.90
2017-11-08T17:50:08.883Z,9.90
2017-11-08T17:52:37.127Z,9.90
2017-11-08T17:55:04.596Z,9.80
2017-11-08T17:57:32.156Z,9.80
2017-11-08T17:59:59.710Z,9.70
2017-11-08T18:02:27.182Z,9.50
2017-11-08T18:04:54.659Z,9.50
2017-11-08T18:07:22.907Z,9.50
2017-11-08T18:09:50.459Z,9.40
2017-11-08T18:12:17.922Z,9.50
2017-11-08T18:14:45.395Z,9.50
2017-11-08T18:17:13.670Z,9.50
2017-11-08T18:19:41.931Z,9.50
2017-11-08T18:22:09.487Z,9.50
2017-11-08T18:24:36.957Z,9.60
2017-11-08T18:27:05.192Z,9.50
2017-11-08T18:29:32.662Z,9.50
2017-11-08T18:32:00.138Z,9.50
2017-11-08T18:34:28.391Z,9.50
2017-11-08T18:36:55.866Z,9.40
2017-11-08T18:39:23.339Z,9.50
2017-11-08T18:41:51.590Z,9.50
2017-11-08T18:44:19.055Z,9.40
2017-11-08T18:46:46.611Z,9.50
2017-11-08T18:49:14.173Z,9.40
2017-11-08T18:51:41.726Z,9.40
2017-11-08T18:54:09.289Z,9.50
2017-11-08T18:56:36.759Z,9.40
2017-11-08T18:59:05.003Z,9.20
2017-11-08T19:01:32.474Z,9.20
2017-11-08T19:03:59.939Z,9.20
2017-11-08T19:06:27.487Z,9.20
2017-11-08T19:08:55.010Z,9.20
2017-11-08T19:11:22.459Z,9.10
2017-11-08T19:13:49.969Z,9.00
2017-11-08T19:16:18.240Z,9.10
2017-11-08T19:18:46.506Z,9.20
2017-11-08T19:21:14.791Z,9.20
2017-11-08T19:23:42.350Z,9.10
2017-11-08T19:26:09.831Z,9.10
2017-11-08T19:28:38.075Z,9.10
2017-11-08T19:31:05.543Z,9.10
2017-11-08T19:33:33.103Z,9.10
2017-11-08T19:36:01.423Z,9.20
2017-11-08T19:38:28.912Z,9.10
2017-11-08T19:40:56.380Z,9.10
2017-11-08T19:43:23.955Z,9.20
2017-11-08T19:45:51.411Z,9.20
2017-11-08T19:48:19.691Z,9.10
2017-11-08T19:50:47.947Z,9.10
2017-11-08T19:53:15.436Z,9.00
2017-11-08T19:55:43.746Z,9.00
2017-11-08T19:58:11.243Z,8.90
2017-11-08T20:00:38.800Z,9.00
2017-11-08T20:03:06.264Z,9.00
2017-11-08T20:05:33.727Z,9.10
2017-11-08T20:08:01.968Z,9.10
2017-11-08T20:10:29.450Z,9.00
2017-11-08T20:12:56.915Z,9.00
2017-11-08T20:15:25.155Z,9.00
2017-11-08T20:17:52.621Z,9.00
2017-11-08T20:20:20.100Z,9.00
2017-11-08T20:22:47.577Z,9.00
2017-11-08T20:25:15.052Z,9.00
2017-11-08T20:27:42.563Z,9.00
2017-11-08T20:30:10.044Z,9.10
2017-11-08T20:32:37.506Z,9.20
2017-11-08T20:35:05.043Z,9.20
2017-11-08T20:37:32.596Z,9.20
2017-11-08T20:40:00.147Z,9.20
2017-11-08T20:42:27.720Z,9.20
2017-11-08T20:44:55.268Z,9.10
2017-11-08T20:47:22.831Z,9.10
2017-11-08T20:49:50.311Z,9.10
2017-11-08T20:52:18.559Z,9.00
2017-11-08T20:54:46.019Z,9.00
2017-11-08T20:57:13.498Z,9.00
2017-11-08T20:59:41.803Z,9.00
2017-11-08T21:02:09.275Z,9.00
2017-11-08T21:04:36.789Z,9.10
2017-11-08T21:07:04.336Z,9.20
2017-11-08T21:09:31.903Z,9.20
2017-11-08T21:12:00.148Z,9.20
2017-11-08T21:14:27.628Z,9.10
2017-11-08T21:16:55.860Z,9.20
2017-11-08T21:19:23.343Z,9.10
2017-11-08T21:21:50.815Z,9.20
2017-11-08T21:24:19.055Z,9.20
2017-11-08T21:26:46.513Z,9.20
2017-11-08T21:29:13.997Z,9.10
2017-11-08T21:31:41.469Z,9.00
2017-11-08T21:34:09.706Z,8.90
2017-11-08T21:36:37.192Z,8.90
2017-11-08T21:39:05.469Z,8.90
2017-11-08T21:41:33.691Z,8.80
2017-11-08T21:44:01.191Z,8.80
2017-11-08T21:46:28.659Z,8.80
2017-11-08T21:48:56.917Z,8.90
2017-11-08T21:51:24.481Z,8.80
2017-11-08T21:53:51.944Z,8.90
2017-11-08T21:56:19.547Z,8.90
2017-11-08T21:58:47.054Z,8.90
2017-11-08T22:01:14.551Z,8.90
2017-11-08T22:03:42.013Z,9.00
2017-11-08T22:06:09.534Z,9.00
2017-11-08T22:08:37.763Z,9.00
2017-11-08T22:11:05.231Z,9.00
2017-11-08T22:13:32.698Z,9.00
2017-11-08T22:16:00.171Z,9.00
2017-11-08T22:18:27.647Z,8.90
2017-11-08T22:20:55.915Z,8.90
2017-11-08T22:23:24.190Z,8.80
2017-11-08T22:25:52.454Z,8.80
2017-11-08T22:28:19.923Z,8.70
2017-11-08T22:30:48.191Z,8.80
2017-11-08T22:33:15.657Z,8.80
2017-11-08T22:35:43.927Z,8.80
2017-11-08T22:38:11.404Z,8.80
2017-11-08T22:40:39.626Z,8.80
2017-11-08T22:43:07.213Z,8.80
2017-11-08T22:45:34.764Z,8.80
2017-11-08T22:48:02.243Z,8.80
2017-11-08T22:50:30.471Z,8.60
2017-11-08T22:52:57.943Z,8.60
2017-11-08T22:55:25.514Z,8.40
2017-11-08T22:57:53.091Z,8.40
2017-11-08T23:00:21.327Z,8.40
2017-11-08T23:02:48.818Z,8.30
2017-11-08T23:05:17.088Z,8.40
2017-11-08T23:07:46.437Z,8.30
2017-11-08T23:10:13.918Z,8.30
2017-11-08T23:12:41.406Z,8.30
2017-11-08T23:15:09.670Z,8.30
2017-11-08T23:17:37.143Z,8.30
2017-11-08T23:20:05.425Z,8.30
2017-11-08T23:22:33.682Z,8.30
2017-11-08T23:25:01.939Z,8.30
2017-11-08T23:27:29.402Z,8.20
2017-11-08T23:29:56.882Z,8.30
2017-11-08T23:32:25.123Z,8.30
2017-11-08T23:34:52.708Z,8.30
2017-11-08T23:37:20.188Z,8.30
2017-11-08T23:39:47.718Z,8.30
2017-11-08T23:42:15.187Z,8.40
2017-11-08T23:44:43.428Z,8.50
2017-11-08T23:47:10.900Z,8.50
2017-11-08T23:49:40.003Z,8.40
2017-11-08T23:52:07.466Z,8.40
2017-11-08T23:54:34.947Z,8.40
2017-11-08T23:57:02.466Z,8.30
2017-11-08T23:59:29.926Z,8.30
